createdAt,value
2023-05-01T00:00:04.745Z,1010.4639834538772
2023-05-01T00:15:02.159Z,1010.3131246107484
2023-05-01T00:30:01.873Z,1010.163095981577
2023-05-01T00:45:01.600Z,1009.9816992323764
2023-05-01T01:00:02.318Z,1009.8288968062776
2023-05-01T01:15:02.057Z,1009.5487037022565
2023-05-01T01:30:01.846Z,1009.3928591643831
2023-05-01T01:45:01.579Z,1009.3447888156874
2023-05-01T02:00:02.274Z,1009.1347579955635
2023-05-01T02:15:02.081Z,1009.0008872598601
2023-05-01T02:30:01.856Z,1008.8927732632695
2023-05-01T02:45:01.576Z,1008.64701374309
2023-05-01T03:00:02.284Z,1008.5085984529603
2023-05-01T03:15:01.942Z,1008.2834541553761
2023-05-01T03:30:01.934Z,1008.1285090463956
2023-05-01T03:45:01.640Z,1007.9158688487001
2023-05-01T04:00:02.295Z,1007.9513250100623
2023-05-01T04:15:01.993Z,1007.7856535268818
2023-05-01T04:30:01.967Z,1007.7691542352622
2023-05-01T04:45:01.752Z,1007.723060954316
2023-05-01T05:00:01.472Z,1007.5412943536815
2023-05-01T05:15:02.181Z,1007.5633402880211
2023-05-01T05:30:01.861Z,1007.4985995949885
2023-05-01T05:45:01.606Z,1007.5762393945067
2023-05-01T06:00:01.339Z,1007.4898668965882
2023-05-01T06:15:02.071Z,1007.510759693094
2023-05-01T06:30:01.822Z,1007.3879332740127
2023-05-01T06:45:01.531Z,1007.3779752154819
2023-05-01T07:00:02.198Z,1007.3076188092762
2023-05-01T07:15:02.260Z,1007.2063814038632
2023-05-01T07:30:02.003Z,1007.1999456725863
2023-05-01T07:45:01.765Z,1007.1514386091092
2023-05-01T08:00:01.723Z,1007.1704827756105
2023-05-01T08:15:02.433Z,1007.2111512267937
2023-05-01T08:30:02.149Z,1007.0799401302397
2023-05-01T08:45:01.756Z,1007.0017807075482
2023-05-01T09:00:02.373Z,1006.9989360597123
2023-05-01T09:15:01.993Z,1006.8647846300031
2023-05-01T09:30:01.642Z,1006.7340395195332
2023-05-01T09:45:02.250Z,1006.6063881722346
2023-05-01T10:00:01.844Z,1006.5482314077753
2023-05-01T10:15:07.900Z,1006.3754325798983
2023-05-01T10:30:01.586Z,1006.4561261995341
2023-05-01T10:45:02.217Z,1006.2258681474799
2023-05-01T11:00:01.869Z,1006.2240518707655
2023-05-01T11:15:01.583Z,1006.0080176056175
2023-05-01T11:30:02.217Z,1005.8726365337722
2023-05-01T11:45:01.826Z,1005.8036798445725
2023-05-01T12:00:01.426Z,1005.6964275634357
2023-05-01T12:15:02.063Z,1005.5853956904714
2023-05-01T12:30:01.708Z,1005.5968850496782
2023-05-01T12:45:02.311Z,1005.5093763613374
2023-05-01T13:00:01.967Z,1005.4589771920048
2023-05-01T13:15:01.594Z,1005.2424492045556
2023-05-01T13:30:02.608Z,1005.2473897953454
2023-05-01T13:45:01.363Z,1005.0532584537603
2023-05-01T14:00:01.968Z,1005.118400403929
2023-05-01T14:15:02.143Z,1005.0777109021615
2023-05-01T14:30:02.116Z,1004.9925094150631
2023-05-01T14:45:01.754Z,1004.9655064993365
2023-05-01T15:00:01.615Z,1004.9490862357248
2023-05-01T15:15:01.387Z,1004.8875510285702
2023-05-01T15:30:02.066Z,1004.9239524632716
2023-05-01T15:45:01.694Z,1005.0672110919638
2023-05-01T16:00:01.748Z,1005.1480648004296
2023-05-01T16:15:01.672Z,1005.0555788557359
2023-05-01T16:30:01.611Z,1005.1435960727705
2023-05-01T16:45:01.352Z,1005.2515690288773
2023-05-01T17:00:02.484Z,1005.5745669736663
2023-05-01T17:15:01.340Z,1005.5982080696365
2023-05-01T17:30:02.461Z,1005.6384059426646
2023-05-01T17:45:01.452Z,1005.7461891077285
2023-05-01T18:00:02.545Z,1005.9997717040412
2023-05-01T18:15:01.507Z,1006.3116377570768
2023-05-01T18:30:02.431Z,1006.6657829187164
2023-05-01T18:45:01.140Z,1006.8468278145508
2023-05-01T19:00:01.993Z,1006.9527478030251
2023-05-01T19:15:01.802Z,1007.0316154700268
2023-05-01T19:30:01.821Z,1007.2376959829797
2023-05-01T19:45:01.755Z,1007.4194380436757
2023-05-01T20:00:01.669Z,1007.5796144526231
2023-05-01T20:15:01.625Z,1007.6352039459739
2023-05-01T20:30:01.618Z,1007.5967207485661
2023-05-01T20:45:01.745Z,1007.5751905647201
2023-05-01T21:00:01.827Z,1007.6928983677541
2023-05-01T21:15:01.756Z,1007.6171011305636
2023-05-01T21:30:02.008Z,1007.8656996233127
2023-05-01T21:45:01.199Z,1008.0414107829702
2023-05-01T22:00:02.217Z,1008.0944442548991
2023-05-01T22:15:02.109Z,1008.1874536564645
2023-05-01T22:30:02.201Z,1008.3103830768799
2023-05-01T22:45:01.254Z,1008.4266557279766
2023-05-01T23:00:02.355Z,1008.512051031958
2023-05-01T23:15:01.744Z,1008.5233050671955
2023-05-01T23:30:01.814Z,1008.8657328455171
2023-05-01T23:45:01.742Z,1008.9065048647066
